< Typhoon 201905 2019 Season Typhoon 201907 >
Typhoon 201906 (NARI)
General InformationTrack Information on Google MapsDetailed Wind InformationForecast History on Google MapsAccess Analytics MapList of All Images || NewsDisaster Info.WeblogTrackbackTyphoon FrontTwiphoonTyphoon Now!Typhoon ImaginationJMA Disaster Info. XMLResourceGoogle EarthGE AnimationAtom FeedGeoJSON
Detalied Best Track (Time Zone = UTC)
Year Month Day Hour Lat. Long. Pressure (hPa) Wind (kt) Class Image Chart
2019 7 24 00 23.0 137.0 1008 0 2 Image Chart
2019 7 24 06 23.5 137.5 1006 0 2 Image Chart
2019 7 24 12 24.3 137.8 1006 0 2 Image Chart
2019 7 24 18 25.3 137.8 1006 0 2 Image Chart
2019 7 25 00 26.3 137.7 1006 0 2 Image Chart
2019 7 25 06 26.5 137.5 1004 0 2 Image Chart
2019 7 25 12 27.5 137.5 1006 0 2 Image Chart
2019 7 25 18 28.5 137.3 1002 35 3 Image Chart
2019 7 26 00 29.7 137.1 1000 35 3 Image Chart
2019 7 26 06 30.9 136.2 1000 35 3 Image Chart
2019 7 26 12 32.0 135.8 1000 35 3 Image Chart
2019 7 26 18 33.4 135.9 998 35 3 Image Chart
2019 7 26 22 34.1 136.3 1000 35 3 Image Chart
2019 7 27 00 34.7 136.4 1000 35 3 Image Chart
2019 7 27 06 35.6 136.7 1004 0 2 Image Chart
2019 7 27 12 36.0 138.3 1008 0 2 Image Chart
2019 7 27 18 36.6 139.8 1008 0 2 Image Chart
2019 7 28 00 36.9 142.0 1010 0 6 Image Chart
2019 7 28 06 37.6 143.7 1010 0 6 Image Chart
2019 7 28 12 38.2 145.7 1010 0 6 Image Chart
2019 7 28 18 38.7 147.7 1010 0 6 Image Chart
2019 7 29 00 39.3 149.8 1010 0 6 Image Chart
2019 7 29 06 39.8 151.6 1008 0 6 Image Chart
2019 7 29 12 40.5 152.9 1010 0 6 Image Chart
Japan Meteorological Agency Best Track Data | Correction Date : 2019-09-04
< Typhoon 201905 2019 Season Typhoon 201907 >

Help